createdAt,value
2017-11-30T00:01:00.645Z,78.30
2017-11-30T00:03:29.368Z,78.30
2017-11-30T00:05:58.496Z,78.30
2017-11-30T00:08:26.827Z,78.20
2017-11-30T00:10:55.377Z,78.20
2017-11-30T00:13:23.904Z,78.40
2017-11-30T00:15:53.000Z,78.30
2017-11-30T00:18:21.900Z,78.20
2017-11-30T00:20:49.926Z,78.20
2017-11-30T00:23:20.104Z,77.90
2017-11-30T00:25:48.099Z,77.20
2017-11-30T00:28:15.791Z,76.70
2017-11-30T00:30:44.121Z,77.30
2017-11-30T00:33:12.256Z,77.40
2017-11-30T00:35:41.373Z,77.70
2017-11-30T00:38:09.702Z,77.70
2017-11-30T00:40:38.025Z,77.70
2017-11-30T00:43:17.651Z,77.80
2017-11-30T00:45:46.082Z,78.30
2017-11-30T00:48:14.407Z,78.30
2017-11-30T00:50:42.771Z,78.30
2017-11-30T00:53:11.856Z,77.80
2017-11-30T00:55:40.183Z,77.80
2017-11-30T00:58:08.649Z,78.00
2017-11-30T01:00:36.977Z,78.10
2017-11-30T01:03:05.505Z,78.10
2017-11-30T01:05:33.936Z,78.10
2017-11-30T01:08:02.266Z,78.30
2017-11-30T01:10:31.219Z,78.30
2017-11-30T01:13:00.311Z,78.30
2017-11-30T01:15:30.060Z,78.40
2017-11-30T01:17:58.274Z,78.40
2017-11-30T01:20:26.624Z,78.60
2017-11-30T01:22:54.947Z,78.50
2017-11-30T01:25:24.077Z,78.30
2017-11-30T01:27:52.413Z,78.30
2017-11-30T01:30:20.737Z,78.50
2017-11-30T01:32:49.109Z,78.50
2017-11-30T01:35:17.452Z,78.50
2017-11-30T01:37:46.567Z,78.20
2017-11-30T01:40:14.939Z,78.20
2017-11-30T01:42:43.292Z,78.00
2017-11-30T01:45:11.617Z,77.70
2017-11-30T01:47:39.999Z,77.70
2017-11-30T01:50:08.530Z,77.30
2017-11-30T01:52:36.865Z,77.70
2017-11-30T01:55:05.250Z,77.10
2017-11-30T01:57:33.595Z,77.70
2017-11-30T02:00:02.074Z,77.70
2017-11-30T02:02:30.435Z,77.70
2017-11-30T02:04:58.768Z,77.80
2017-11-30T02:07:27.106Z,77.20
2017-11-30T02:09:55.461Z,77.50
2017-11-30T02:12:24.615Z,77.30
2017-11-30T02:14:52.944Z,77.30
2017-11-30T02:17:21.268Z,77.50
2017-11-30T02:19:49.652Z,77.30
2017-11-30T02:22:17.683Z,77.30
2017-11-30T02:24:45.539Z,77.10
2017-11-30T02:27:14.113Z,77.30
2017-11-30T02:29:42.440Z,77.30
2017-11-30T02:32:09.937Z,76.80
2017-11-30T02:34:38.394Z,77.90
2017-11-30T02:37:06.408Z,77.90
2017-11-30T02:39:34.436Z,77.80
2017-11-30T02:42:02.869Z,78.80
2017-11-30T02:44:31.528Z,77.90
2017-11-30T02:47:00.235Z,78.00
2017-11-30T02:49:28.233Z,77.90
2017-11-30T02:51:56.234Z,77.80
2017-11-30T02:54:24.697Z,77.90
2017-11-30T02:56:52.366Z,77.90
2017-11-30T02:59:20.842Z,78.00
2017-11-30T03:01:48.707Z,77.90
2017-11-30T03:04:16.716Z,77.80
2017-11-30T03:06:44.710Z,77.80
2017-11-30T03:09:12.373Z,77.40
2017-11-30T03:11:40.032Z,77.60
2017-11-30T03:14:08.411Z,77.30
2017-11-30T03:16:36.760Z,77.30
2017-11-30T03:19:04.758Z,77.30
2017-11-30T03:21:33.113Z,77.40
2017-11-30T03:24:01.438Z,77.60
2017-11-30T03:26:30.764Z,77.70
2017-11-30T03:29:00.700Z,77.50
2017-11-30T03:31:29.303Z,77.50
2017-11-30T03:33:57.656Z,77.50
2017-11-30T03:36:25.974Z,77.60
2017-11-30T03:38:54.313Z,77.60
2017-11-30T03:41:22.678Z,77.70
2017-11-30T03:43:51.009Z,77.60
2017-11-30T03:46:19.327Z,77.60
2017-11-30T03:48:47.696Z,77.60
2017-11-30T03:51:16.999Z,77.60
2017-11-30T03:53:45.339Z,77.60
2017-11-30T03:56:13.722Z,78.00
2017-11-30T03:58:41.733Z,77.20
2017-11-30T04:01:09.880Z,77.20
2017-11-30T04:03:39.227Z,77.30
2017-11-30T04:06:07.570Z,77.30
2017-11-30T04:08:35.908Z,77.50
2017-11-30T04:11:04.272Z,77.60
2017-11-30T04:13:32.619Z,77.50
2017-11-30T04:16:00.940Z,77.10
2017-11-30T04:18:29.380Z,77.30
2017-11-30T04:20:58.639Z,77.30
2017-11-30T04:23:27.743Z,77.40
2017-11-30T04:25:56.873Z,77.40
2017-11-30T04:28:25.195Z,77.40
2017-11-30T04:30:53.533Z,77.40
2017-11-30T04:33:21.897Z,77.30
2017-11-30T04:35:50.219Z,77.50
2017-11-30T04:38:18.557Z,77.80
2017-11-30T04:40:46.944Z,77.40
2017-11-30T04:43:15.274Z,77.70
2017-11-30T04:45:44.360Z,77.80
2017-11-30T04:48:13.493Z,77.40
2017-11-30T04:50:41.831Z,77.40
2017-11-30T04:53:10.934Z,77.30
2017-11-30T04:55:40.058Z,77.40
2017-11-30T04:58:08.406Z,77.40
2017-11-30T05:00:37.515Z,77.50
2017-11-30T05:03:05.873Z,77.40
2017-11-30T05:05:34.972Z,77.60
2017-11-30T05:08:03.746Z,77.20
2017-11-30T05:10:32.291Z,77.10
2017-11-30T05:13:00.804Z,77.30
2017-11-30T05:15:29.550Z,77.30
2017-11-30T05:17:58.096Z,77.30
2017-11-30T05:20:27.188Z,77.20
2017-11-30T05:22:56.288Z,77.50
2017-11-30T05:25:25.616Z,77.70
2017-11-30T05:27:53.955Z,77.70
2017-11-30T05:30:22.855Z,77.80
2017-11-30T05:32:51.231Z,78.50
2017-11-30T05:35:19.390Z,77.80
2017-11-30T05:37:48.489Z,77.20
2017-11-30T05:40:17.618Z,77.50
2017-11-30T05:42:45.967Z,77.60
2017-11-30T05:45:14.309Z,77.20
2017-11-30T05:47:42.628Z,76.80
2017-11-30T05:50:11.010Z,76.40
2017-11-30T05:52:39.344Z,75.90
2017-11-30T05:55:07.673Z,76.20
2017-11-30T05:57:36.050Z,76.30
2017-11-30T06:00:03.924Z,76.40
2017-11-30T06:02:32.244Z,76.30
2017-11-30T06:05:01.489Z,76.60
2017-11-30T06:07:30.962Z,76.00
2017-11-30T06:10:00.082Z,76.00
2017-11-30T06:12:28.467Z,76.00
2017-11-30T06:14:56.804Z,76.10
2017-11-30T06:17:25.900Z,75.60
2017-11-30T06:19:54.471Z,75.60
2017-11-30T06:22:23.821Z,75.50
2017-11-30T06:24:52.165Z,75.70
2017-11-30T06:27:21.325Z,76.10
2017-11-30T06:29:49.669Z,76.10
2017-11-30T06:32:19.078Z,76.10
2017-11-30T06:34:47.407Z,76.60
2017-11-30T06:37:16.513Z,76.20
2017-11-30T06:39:45.645Z,76.00
2017-11-30T06:42:13.812Z,76.70
2017-11-30T06:44:42.337Z,76.20
2017-11-30T06:47:10.720Z,76.10
2017-11-30T06:49:39.061Z,76.70
2017-11-30T06:52:07.405Z,76.90
2017-11-30T06:54:35.792Z,77.00
2017-11-30T06:57:03.941Z,76.90
2017-11-30T06:59:33.037Z,76.90
2017-11-30T07:02:02.188Z,76.90
2017-11-30T07:04:30.740Z,77.20
2017-11-30T07:06:59.063Z,77.50
2017-11-30T07:09:27.399Z,77.40
2017-11-30T07:11:55.795Z,77.40
2017-11-30T07:14:24.127Z,76.90
2017-11-30T07:16:52.468Z,77.10
2017-11-30T07:19:20.825Z,77.10
2017-11-30T07:21:49.179Z,77.30
2017-11-30T07:24:17.514Z,77.40
2017-11-30T07:26:46.641Z,77.40
2017-11-30T07:29:14.992Z,77.30
2017-11-30T07:31:45.069Z,77.60
2017-11-30T07:34:13.230Z,77.60
2017-11-30T07:36:41.575Z,77.90
2017-11-30T07:39:09.927Z,77.90
2017-11-30T07:41:39.030Z,77.80
2017-11-30T07:44:08.325Z,77.70
2017-11-30T07:46:37.466Z,77.80
2017-11-30T07:49:05.838Z,77.80
2017-11-30T07:51:34.176Z,77.70
2017-11-30T07:54:03.301Z,77.90
2017-11-30T07:56:31.633Z,78.60
2017-11-30T07:59:01.524Z,77.40
2017-11-30T08:01:30.792Z,78.00
2017-11-30T08:03:59.125Z,77.90
2017-11-30T08:06:28.841Z,77.80
2017-11-30T08:08:57.968Z,77.90
2017-11-30T08:11:26.359Z,77.90
2017-11-30T08:13:54.895Z,78.20
2017-11-30T08:16:23.987Z,78.40
2017-11-30T08:18:53.234Z,78.40
2017-11-30T08:21:21.565Z,78.40
2017-11-30T08:23:50.670Z,78.50
2017-11-30T08:26:18.694Z,78.40
2017-11-30T08:28:46.707Z,78.30
2017-11-30T08:31:15.034Z,78.40
2017-11-30T08:33:43.073Z,78.40
2017-11-30T08:36:11.400Z,78.40
2017-11-30T08:38:39.733Z,78.30
2017-11-30T08:41:08.114Z,78.80
2017-11-30T08:43:36.449Z,78.70
2017-11-30T08:46:05.239Z,78.70
2017-11-30T08:48:34.382Z,78.60
2017-11-30T08:51:02.912Z,78.70
2017-11-30T08:53:31.960Z,78.60
2017-11-30T08:56:00.343Z,78.60
2017-11-30T08:58:28.354Z,78.60
2017-11-30T09:00:57.121Z,78.70
2017-11-30T09:03:26.515Z,78.70
2017-11-30T09:05:54.846Z,78.60
2017-11-30T09:08:23.195Z,78.60
2017-11-30T09:10:51.559Z,78.50
2017-11-30T09:13:20.662Z,79.00
2017-11-30T09:15:49.020Z,79.00
2017-11-30T09:18:17.578Z,79.00
2017-11-30T09:20:45.919Z,78.90
2017-11-30T09:23:14.240Z,78.80
2017-11-30T09:25:42.613Z,78.90
2017-11-30T09:28:10.966Z,78.80
2017-11-30T09:30:39.308Z,78.90
2017-11-30T09:33:07.677Z,78.60
2017-11-30T09:35:36.012Z,78.70
2017-11-30T09:38:04.555Z,78.70
2017-11-30T09:40:32.891Z,78.80
2017-11-30T09:43:02.808Z,78.60
2017-11-30T09:45:32.819Z,78.70
2017-11-30T09:48:01.721Z,78.70
2017-11-30T09:50:31.083Z,78.70
2017-11-30T09:53:00.047Z,78.70
2017-11-30T09:55:28.561Z,78.50
2017-11-30T09:57:56.920Z,78.80
2017-11-30T10:00:25.279Z,78.60
2017-11-30T10:02:53.622Z,79.00
2017-11-30T10:05:22.734Z,78.80
2017-11-30T10:07:51.075Z,78.80
2017-11-30T10:10:19.420Z,78.50
2017-11-30T10:12:47.770Z,78.30
2017-11-30T10:15:16.114Z,78.60
2017-11-30T10:17:45.249Z,78.60
2017-11-30T10:20:13.593Z,78.50
2017-11-30T10:22:42.697Z,78.70
2017-11-30T10:25:11.064Z,78.70
2017-11-30T10:27:40.177Z,78.50
2017-11-30T10:30:08.531Z,78.40
2017-11-30T10:32:37.452Z,78.50
2017-11-30T10:35:05.588Z,78.40
2017-11-30T10:37:34.725Z,78.80
2017-11-30T10:40:03.067Z,78.70
2017-11-30T10:42:32.186Z,78.70
2017-11-30T10:45:00.374Z,78.70
2017-11-30T10:47:28.722Z,78.70
2017-11-30T10:49:57.078Z,78.80
2017-11-30T10:52:25.995Z,78.80
2017-11-30T10:54:54.328Z,78.80
2017-11-30T10:57:22.689Z,78.80
2017-11-30T10:59:51.065Z,78.80
2017-11-30T11:02:20.422Z,78.80
2017-11-30T11:04:48.797Z,78.70
2017-11-30T11:07:17.124Z,79.10
2017-11-30T11:09:45.460Z,79.10
2017-11-30T11:12:13.805Z,78.90
2017-11-30T11:14:42.898Z,79.00
2017-11-30T11:17:12.040Z,78.80
2017-11-30T11:19:40.582Z,78.80
2017-11-30T11:22:09.693Z,78.80
2017-11-30T11:24:38.032Z,78.80
2017-11-30T11:27:06.363Z,78.80
2017-11-30T11:29:34.706Z,78.80
2017-11-30T11:32:03.805Z,78.70
2017-11-30T11:34:33.128Z,78.60
2017-11-30T11:37:02.313Z,78.40
2017-11-30T11:39:30.662Z,78.50
2017-11-30T11:42:00.444Z,78.70
2017-11-30T11:44:28.806Z,78.60
2017-11-30T11:46:57.308Z,78.50
2017-11-30T11:49:25.664Z,78.80
2017-11-30T11:51:54.026Z,78.90
2017-11-30T11:54:22.356Z,78.80
2017-11-30T11:56:51.469Z,78.80
2017-11-30T11:59:19.790Z,78.80
2017-11-30T12:01:48.157Z,78.80
2017-11-30T12:04:16.501Z,78.60
2017-11-30T12:06:44.846Z,78.60
2017-11-30T12:09:13.188Z,78.70
2017-11-30T12:11:41.514Z,78.70
2017-11-30T12:14:10.619Z,78.70
2017-11-30T12:16:39.738Z,78.80
2017-11-30T12:19:08.063Z,78.70
2017-11-30T12:21:36.422Z,78.50
2017-11-30T12:24:04.923Z,78.90
2017-11-30T12:26:33.267Z,78.80
2017-11-30T12:29:01.580Z,78.80
2017-11-30T12:31:30.683Z,78.80
2017-11-30T12:34:00.493Z,78.70
2017-11-30T12:36:29.012Z,78.70
2017-11-30T12:38:57.341Z,78.60
2017-11-30T12:41:25.677Z,78.80
2017-11-30T12:43:54.031Z,78.90
2017-11-30T12:46:22.368Z,78.90
2017-11-30T12:48:50.727Z,78.90
2017-11-30T12:51:19.077Z,79.10
2017-11-30T12:53:47.609Z,78.60
2017-11-30T12:56:16.729Z,78.60
2017-11-30T12:58:44.543Z,78.50
2017-11-30T13:01:12.900Z,78.50
2017-11-30T13:03:41.228Z,78.70
2017-11-30T13:06:10.152Z,78.70
2017-11-30T13:08:38.498Z,78.70
2017-11-30T13:11:06.843Z,78.70
2017-11-30T13:13:34.983Z,78.80
2017-11-30T13:16:03.955Z,78.80
2017-11-30T13:18:32.485Z,78.80
2017-11-30T13:21:00.826Z,79.20
2017-11-30T13:23:29.175Z,79.30
2017-11-30T13:25:57.329Z,79.00
2017-11-30T13:28:26.610Z,78.90
2017-11-30T13:30:54.953Z,78.90
2017-11-30T13:33:23.292Z,78.80
2017-11-30T13:35:52.240Z,79.00
2017-11-30T13:38:20.578Z,79.00
2017-11-30T13:40:48.902Z,78.90
2017-11-30T13:43:17.251Z,79.80
2017-11-30T13:45:45.588Z,79.10
2017-11-30T13:48:14.717Z,78.90
2017-11-30T13:50:43.061Z,78.90
2017-11-30T13:53:12.137Z,79.40
2017-11-30T13:55:41.270Z,79.30
2017-11-30T13:58:20.883Z,79.20
2017-11-30T14:00:50.012Z,79.00
2017-11-30T14:03:18.343Z,79.00
2017-11-30T14:05:47.587Z,79.30
2017-11-30T14:08:15.927Z,79.30
2017-11-30T14:10:45.025Z,79.10
2017-11-30T14:13:13.363Z,79.10
2017-11-30T14:15:41.703Z,79.20
2017-11-30T14:18:10.978Z,79.00
2017-11-30T14:20:40.081Z,78.80
2017-11-30T14:23:08.414Z,78.80
2017-11-30T14:25:36.755Z,79.00
2017-11-30T14:28:05.091Z,79.00
2017-11-30T14:30:34.209Z,79.30
2017-11-30T14:33:02.668Z,79.20
2017-11-30T14:35:31.916Z,79.40
2017-11-30T14:38:00.265Z,79.30
2017-11-30T14:40:28.640Z,79.40
2017-11-30T14:42:56.980Z,79.30
2017-11-30T14:45:25.321Z,79.00
2017-11-30T14:47:53.659Z,79.00
2017-11-30T14:50:21.996Z,79.00
2017-11-30T14:52:50.338Z,78.90
2017-11-30T14:55:18.895Z,78.90
2017-11-30T14:57:47.239Z,79.00
2017-11-30T15:00:15.581Z,78.90
2017-11-30T15:02:43.927Z,78.50
2017-11-30T15:05:12.260Z,78.50
2017-11-30T15:07:40.406Z,78.60
2017-11-30T15:10:08.740Z,78.60
2017-11-30T15:12:37.859Z,78.80
2017-11-30T15:15:06.212Z,78.80
2017-11-30T15:17:34.549Z,78.60
2017-11-30T15:20:02.895Z,78.50
2017-11-30T15:22:31.227Z,78.60
2017-11-30T15:25:00.893Z,78.70
2017-11-30T15:27:29.240Z,78.70
2017-11-30T15:29:57.576Z,78.70
2017-11-30T15:32:25.917Z,78.70
2017-11-30T15:34:54.255Z,78.80
2017-11-30T15:37:22.587Z,78.70
2017-11-30T15:39:50.921Z,78.80
2017-11-30T15:42:19.259Z,79.70
2017-11-30T15:44:47.622Z,79.00
2017-11-30T15:47:15.635Z,78.90
2017-11-30T15:49:43.963Z,78.90
2017-11-30T15:52:12.301Z,79.10
2017-11-30T15:54:40.678Z,79.00
2017-11-30T15:57:09.009Z,78.90
2017-11-30T15:59:37.323Z,78.80
2017-11-30T16:02:05.690Z,79.00
2017-11-30T16:04:34.018Z,78.80
2017-11-30T16:07:02.515Z,78.90
2017-11-30T16:09:30.856Z,79.00
2017-11-30T16:11:59.193Z,79.00
2017-11-30T16:14:28.308Z,79.20
2017-11-30T16:16:56.639Z,79.10
2017-11-30T16:19:24.978Z,78.90
2017-11-30T16:21:53.336Z,78.90
2017-11-30T16:24:21.338Z,78.70
2017-11-30T16:26:49.720Z,78.80
2017-11-30T16:29:18.112Z,78.80
2017-11-30T16:31:46.644Z,78.80
2017-11-30T16:34:14.965Z,79.00
2017-11-30T16:36:43.293Z,79.00
2017-11-30T16:39:11.624Z,78.70
2017-11-30T16:41:40.740Z,79.30
2017-11-30T16:44:09.647Z,79.20
2017-11-30T16:46:37.463Z,79.10
2017-11-30T16:49:05.799Z,79.10
2017-11-30T16:51:34.121Z,79.00
2017-11-30T16:54:03.389Z,79.00
2017-11-30T16:56:32.790Z,79.00
2017-11-30T16:59:01.247Z,79.00
2017-11-30T17:01:29.818Z,78.80
2017-11-30T17:03:58.159Z,78.70
2017-11-30T17:06:26.528Z,78.90
2017-11-30T17:08:54.857Z,79.00
2017-11-30T17:11:22.528Z,78.90
2017-11-30T17:13:50.873Z,78.90
2017-11-30T17:16:19.972Z,79.20
2017-11-30T17:18:48.296Z,79.10
2017-11-30T17:21:16.644Z,79.30
2017-11-30T17:23:44.652Z,79.30
2017-11-30T17:26:13.007Z,79.30
2017-11-30T17:28:41.018Z,78.90
2017-11-30T17:31:10.106Z,78.70
2017-11-30T17:33:39.210Z,79.40
2017-11-30T17:36:08.298Z,78.80
2017-11-30T17:38:37.402Z,78.60
2017-11-30T17:41:06.512Z,78.10
2017-11-30T17:43:34.850Z,78.10
2017-11-30T17:46:03.217Z,78.30
2017-11-30T17:48:32.813Z,78.40
2017-11-30T17:51:01.716Z,78.30
2017-11-30T17:53:30.612Z,78.10
2017-11-30T17:55:58.944Z,78.00
2017-11-30T17:58:27.283Z,75.60
2017-11-30T18:00:56.436Z,77.90
2017-11-30T18:03:24.781Z,77.80
2017-11-30T18:05:53.140Z,77.70
2017-11-30T18:08:22.226Z,77.70
2017-11-30T18:10:51.434Z,77.90
2017-11-30T18:13:20.561Z,77.90
2017-11-30T18:15:48.901Z,77.90
2017-11-30T18:18:18.001Z,78.20
2017-11-30T18:20:47.139Z,78.20
2017-11-30T18:23:15.458Z,78.10
2017-11-30T18:25:44.554Z,77.80
2017-11-30T18:28:13.716Z,77.00
2017-11-30T18:30:41.722Z,77.00
2017-11-30T18:33:10.498Z,77.40
2017-11-30T18:35:39.630Z,77.50
2017-11-30T18:38:07.804Z,77.60
2017-11-30T18:40:36.170Z,77.60
2017-11-30T18:43:04.167Z,78.00
2017-11-30T18:45:32.907Z,78.20
2017-11-30T18:48:02.016Z,78.10
2017-11-30T18:50:30.963Z,78.10
2017-11-30T18:53:00.731Z,78.30
2017-11-30T18:55:29.059Z,78.30
2017-11-30T18:57:58.146Z,78.60
2017-11-30T19:00:26.507Z,78.30
2017-11-30T19:02:54.853Z,78.20
2017-11-30T19:05:23.183Z,78.20
2017-11-30T19:07:52.278Z,79.10
2017-11-30T19:10:21.388Z,78.60
2017-11-30T19:12:49.743Z,78.60
2017-11-30T19:15:18.070Z,78.50
2017-11-30T19:17:46.403Z,78.40
2017-11-30T19:20:15.559Z,78.10
2017-11-30T19:22:43.899Z,78.10
2017-11-30T19:25:12.244Z,78.10
2017-11-30T19:27:40.580Z,77.80
2017-11-30T19:30:08.926Z,77.80
2017-11-30T19:32:37.265Z,77.90
2017-11-30T19:35:05.624Z,77.90
2017-11-30T19:37:33.958Z,77.90
2017-11-30T19:40:03.197Z,78.10
2017-11-30T19:42:31.746Z,78.00
2017-11-30T19:45:00.755Z,78.20
2017-11-30T19:47:29.084Z,78.50
2017-11-30T19:49:58.200Z,78.50
2017-11-30T19:52:26.513Z,78.50
2017-11-30T19:54:54.864Z,78.30
2017-11-30T19:57:23.240Z,78.30
2017-11-30T19:59:51.563Z,78.30
2017-11-30T20:02:19.914Z,78.20
2017-11-30T20:04:48.281Z,78.30
2017-11-30T20:07:16.635Z,78.20
2017-11-30T20:09:44.813Z,78.00
2017-11-30T20:12:12.938Z,78.70
2017-11-30T20:14:41.268Z,78.30
2017-11-30T20:17:09.644Z,78.20
2017-11-30T20:19:38.019Z,78.20
2017-11-30T20:22:06.348Z,78.40
2017-11-30T20:24:34.538Z,78.30
2017-11-30T20:27:02.895Z,78.50
2017-11-30T20:29:32.393Z,78.30
2017-11-30T20:32:01.298Z,78.30
2017-11-30T20:34:29.472Z,78.30
2017-11-30T20:36:58.579Z,78.60
2017-11-30T20:39:27.016Z,79.80
2017-11-30T20:41:56.279Z,78.50
2017-11-30T20:44:24.760Z,78.50
2017-11-30T20:46:53.282Z,78.70
2017-11-30T20:49:21.639Z,78.80
2017-11-30T20:51:49.957Z,79.70
2017-11-30T20:54:19.097Z,78.80
2017-11-30T20:56:47.463Z,78.70
2017-11-30T20:59:15.808Z,78.70
2017-11-30T21:01:44.901Z,78.50
2017-11-30T21:04:14.010Z,78.50
2017-11-30T21:06:42.401Z,78.50
2017-11-30T21:09:10.732Z,78.30
2017-11-30T21:11:39.082Z,78.30
2017-11-30T21:14:08.189Z,78.30
2017-11-30T21:16:36.554Z,78.40
2017-11-30T21:19:05.095Z,78.30
2017-11-30T21:21:33.431Z,78.40
2017-11-30T21:24:02.563Z,78.40
2017-11-30T21:26:31.507Z,78.60
2017-11-30T21:29:00.053Z,78.70
2017-11-30T21:31:28.395Z,78.60
2017-11-30T21:33:57.495Z,78.70
2017-11-30T21:36:26.586Z,78.40
2017-11-30T21:38:55.702Z,78.30
2017-11-30T21:41:24.044Z,78.30
2017-11-30T21:43:53.136Z,78.40
2017-11-30T21:46:21.676Z,78.30
2017-11-30T21:48:50.018Z,78.40
2017-11-30T21:51:19.112Z,78.50
2017-11-30T21:53:47.484Z,78.50
2017-11-30T21:56:16.588Z,78.50
2017-11-30T21:58:44.922Z,78.50
2017-11-30T22:01:13.278Z,78.60
2017-11-30T22:03:41.627Z,78.50
2017-11-30T22:06:09.972Z,78.30
2017-11-30T22:08:38.304Z,78.30
2017-11-30T22:11:06.632Z,78.50
2017-11-30T22:13:35.754Z,78.70
2017-11-30T22:16:04.087Z,78.70
2017-11-30T22:18:33.191Z,79.20
2017-11-30T22:21:02.303Z,78.50
2017-11-30T22:23:31.876Z,78.60
2017-11-30T22:26:00.769Z,78.60
2017-11-30T22:28:28.783Z,78.60
2017-11-30T22:30:57.098Z,78.90
2017-11-30T22:33:25.434Z,78.80
2017-11-30T22:35:53.768Z,79.00
2017-11-30T22:38:22.116Z,79.10
2017-11-30T22:40:50.432Z,78.80
2017-11-30T22:43:19.975Z,78.60
2017-11-30T22:45:48.348Z,78.60
2017-11-30T22:48:17.637Z,78.70
2017-11-30T22:50:45.644Z,78.70
2017-11-30T22:53:13.976Z,78.80
2017-11-30T22:55:42.323Z,79.00
2017-11-30T22:58:11.414Z,79.70
2017-11-30T23:00:42.383Z,79.40
2017-11-30T23:03:10.722Z,78.90
2017-11-30T23:05:39.051Z,78.60
2017-11-30T23:08:07.392Z,78.60
2017-11-30T23:10:36.553Z,78.90
2017-11-30T23:13:05.048Z,78.80
2017-11-30T23:15:34.281Z,78.90
2017-11-30T23:18:04.233Z,79.20
2017-11-30T23:20:32.859Z,79.10
2017-11-30T23:23:02.008Z,79.10
2017-11-30T23:25:30.345Z,79.20
2017-11-30T23:27:59.430Z,79.10
2017-11-30T23:30:28.526Z,79.00
2017-11-30T23:32:57.613Z,79.00
2017-11-30T23:35:26.727Z,79.00
2017-11-30T23:37:55.078Z,79.00
2017-11-30T23:40:23.407Z,79.00
2017-11-30T23:42:51.741Z,79.10
2017-11-30T23:45:20.827Z,78.70
2017-11-30T23:47:49.946Z,78.70
2017-11-30T23:50:18.296Z,78.70
2017-11-30T23:52:46.639Z,78.80
2017-11-30T23:55:14.990Z,78.40
2017-11-30T23:57:44.186Z,78.40
